createdAt,value
2023-02-23T00:01:54.992Z,22.08
2023-02-23T00:04:23.755Z,26.92
2023-02-23T00:06:53.858Z,22.05
2023-02-23T00:09:24.775Z,25.60
2023-02-23T00:11:56.903Z,21.50
2023-02-23T00:14:29.089Z,27.73
2023-02-23T00:16:56.909Z,21.02
2023-02-23T00:19:25.277Z,23.55
2023-02-23T00:21:53.673Z,25.02
2023-02-23T00:24:27.157Z,20.23
2023-02-23T00:26:54.299Z,23.08
2023-02-23T00:29:23.740Z,20.88
2023-02-23T00:31:52.382Z,20.38
2023-02-23T00:34:21.588Z,27.27
2023-02-23T00:36:56.290Z,28.85
2023-02-23T00:39:29.105Z,21.92
2023-02-23T00:41:56.695Z,25.77
2023-02-23T00:44:24.770Z,29.45
2023-02-23T00:46:52.664Z,22.45
2023-02-23T00:49:22.082Z,29.63
2023-02-23T00:51:49.098Z,24.33
2023-02-23T00:54:17.789Z,30.60
2023-02-23T00:56:45.558Z,17.58
2023-02-23T00:59:13.472Z,23.98
2023-02-23T01:01:45.186Z,32.40
2023-02-23T01:04:13.325Z,20.95
2023-02-23T01:06:41.662Z,18.33
2023-02-23T01:09:11.629Z,31.15
2023-02-23T01:11:38.790Z,21.00
2023-02-23T01:14:05.684Z,21.35
2023-02-23T01:16:34.904Z,21.98
2023-02-23T01:19:03.981Z,31.48
2023-02-23T01:21:34.189Z,22.55
2023-02-23T01:24:02.455Z,21.65
2023-02-23T01:26:35.179Z,18.60
2023-02-23T01:29:11.292Z,25.40
2023-02-23T01:31:40.749Z,30.70
2023-02-23T01:34:09.920Z,36.40
2023-02-23T01:36:39.064Z,18.88
2023-02-23T01:39:08.989Z,28.98
2023-02-23T01:41:36.989Z,31.52
2023-02-23T01:44:28.482Z,23.02
2023-02-23T01:46:56.117Z,33.13
2023-02-23T01:49:28.450Z,22.95
2023-02-23T01:52:04.967Z,29.15
2023-02-23T01:54:38.934Z,24.45
2023-02-23T01:57:08.126Z,24.65
2023-02-23T01:59:39.953Z,33.47
2023-02-23T02:02:07.791Z,26.05
2023-02-23T02:04:44.507Z,25.35
2023-02-23T02:07:22.909Z,30.00
2023-02-23T02:10:11.196Z,34.03
2023-02-23T02:12:45.017Z,22.63
2023-02-23T02:15:19.309Z,23.45
2023-02-23T02:18:10.704Z,25.80
2023-02-23T02:21:04.562Z,23.75
2023-02-23T02:23:46.580Z,24.08
2023-02-23T02:26:24.461Z,22.23
2023-02-23T02:28:51.413Z,21.05
2023-02-23T02:31:49.763Z,24.20
2023-02-23T02:34:58.143Z,27.73
2023-02-23T02:37:49.972Z,20.08
2023-02-23T02:40:38.585Z,29.65
2023-02-23T02:43:29.313Z,21.55
2023-02-23T02:46:37.524Z,25.13
2023-02-23T02:49:27.798Z,26.98
2023-02-23T02:52:05.692Z,17.48
2023-02-23T02:54:41.968Z,21.33
2023-02-23T02:57:10.684Z,23.00
2023-02-23T03:00:07.354Z,22.83
2023-02-23T03:02:57.044Z,15.70
2023-02-23T03:06:06.826Z,22.58
2023-02-23T03:08:57.952Z,14.82
2023-02-23T03:11:53.078Z,14.93
2023-02-23T03:14:39.292Z,24.80
2023-02-23T03:17:39.761Z,21.70
2023-02-23T03:21:00.095Z,21.75
2023-02-23T03:24:14.961Z,13.57
2023-02-23T03:27:18.452Z,19.92
2023-02-23T03:30:27.036Z,19.77
2023-02-23T03:33:24.721Z,20.52
2023-02-23T03:36:10.128Z,21.08
2023-02-23T03:39:10.172Z,28.13
2023-02-23T03:42:00.450Z,17.45
2023-02-23T03:44:51.157Z,26.70
2023-02-23T03:47:41.751Z,19.45
2023-02-23T03:50:38.128Z,14.02
2023-02-23T03:53:28.125Z,19.80
2023-02-23T03:56:16.044Z,24.60
2023-02-23T03:59:08.820Z,29.85
2023-02-23T04:01:57.044Z,26.27
2023-02-23T04:04:45.395Z,21.05
2023-02-23T04:07:35.416Z,22.55
2023-02-23T04:10:21.370Z,22.58
2023-02-23T04:13:15.494Z,19.33
2023-02-23T04:16:06.796Z,21.27
2023-02-23T04:18:36.446Z,23.83
2023-02-23T04:21:04.234Z,23.35
2023-02-23T04:23:32.136Z,23.40
2023-02-23T04:25:59.511Z,16.83
2023-02-23T04:28:28.222Z,25.33
2023-02-23T04:30:55.266Z,26.23
2023-02-23T04:33:25.048Z,21.27
2023-02-23T04:35:55.335Z,29.88
2023-02-23T04:38:24.459Z,19.33
2023-02-23T04:40:51.651Z,15.75
2023-02-23T04:43:18.649Z,13.77
2023-02-23T04:45:45.831Z,11.27
2023-02-23T04:48:12.740Z,15.43
2023-02-23T04:50:39.810Z,11.82
2023-02-23T04:53:06.917Z,13.38
2023-02-23T04:55:33.933Z,18.45
2023-02-23T04:58:02.241Z,14.30
2023-02-23T05:00:29.894Z,15.48
2023-02-23T05:02:57.647Z,10.73
2023-02-23T05:05:25.200Z,10.07
2023-02-23T05:07:53.109Z,11.95
2023-02-23T05:10:20.061Z,9.18
2023-02-23T05:12:47.074Z,11.27
2023-02-23T05:15:13.996Z,13.27
2023-02-23T05:17:44.217Z,12.75
2023-02-23T05:20:12.636Z,10.52
2023-02-23T05:22:39.675Z,12.07
2023-02-23T05:25:08.857Z,16.67
2023-02-23T05:27:36.922Z,11.23
2023-02-23T05:30:05.310Z,15.65
2023-02-23T05:32:32.282Z,8.88
2023-02-23T05:34:59.238Z,9.07
2023-02-23T05:37:26.099Z,10.07
2023-02-23T05:39:53.088Z,15.68
2023-02-23T05:42:20.089Z,11.75
2023-02-23T05:44:46.986Z,10.18
2023-02-23T05:47:13.899Z,6.90
2023-02-23T05:49:40.816Z,16.27
2023-02-23T05:52:07.653Z,9.20
2023-02-23T05:54:34.566Z,14.35
2023-02-23T05:57:01.963Z,10.48
2023-02-23T05:59:29.193Z,18.95
2023-02-23T06:01:56.194Z,9.32
2023-02-23T06:04:23.979Z,10.95
2023-02-23T06:06:50.892Z,14.50
2023-02-23T06:09:17.776Z,17.77
2023-02-23T06:11:44.760Z,11.23
2023-02-23T06:14:11.728Z,13.05
2023-02-23T06:16:39.495Z,17.83
2023-02-23T06:19:06.716Z,9.30
2023-02-23T06:21:33.796Z,16.40
2023-02-23T06:24:01.048Z,10.10
2023-02-23T06:26:28.248Z,12.80
2023-02-23T06:28:56.101Z,12.55
2023-02-23T06:31:23.497Z,8.30
2023-02-23T06:33:51.041Z,10.13
2023-02-23T06:36:18.059Z,15.52
2023-02-23T06:38:45.777Z,8.30
2023-02-23T06:41:13.276Z,14.98
2023-02-23T06:43:40.206Z,15.23
2023-02-23T06:46:07.149Z,6.30
2023-02-23T06:48:35.596Z,10.95
2023-02-23T06:51:02.819Z,10.68
2023-02-23T06:53:31.478Z,17.30
2023-02-23T06:55:58.369Z,8.27
2023-02-23T06:58:25.430Z,7.47
2023-02-23T07:00:54.340Z,11.63
2023-02-23T07:03:21.296Z,11.23
2023-02-23T07:05:48.294Z,9.30
2023-02-23T07:08:15.258Z,8.77
2023-02-23T07:10:42.634Z,14.60
2023-02-23T07:13:09.812Z,9.98
2023-02-23T07:15:37.193Z,12.68
2023-02-23T07:18:04.185Z,9.18
2023-02-23T07:20:31.610Z,10.05
2023-02-23T07:22:58.905Z,13.93
2023-02-23T07:25:25.782Z,9.98
2023-02-23T07:27:54.143Z,6.97
2023-02-23T07:30:24.551Z,10.60
2023-02-23T07:32:52.921Z,10.93
2023-02-23T07:35:20.453Z,7.50
2023-02-23T07:37:47.388Z,13.30
2023-02-23T07:40:15.936Z,12.02
2023-02-23T07:42:42.955Z,14.48
2023-02-23T07:45:10.550Z,17.52
2023-02-23T07:47:39.402Z,6.75
2023-02-23T07:50:10.605Z,7.43
2023-02-23T07:52:38.258Z,10.15
2023-02-23T07:55:07.311Z,13.32
2023-02-23T07:57:34.913Z,14.35
2023-02-23T08:00:02.025Z,17.73
2023-02-23T08:02:32.725Z,4.75
2023-02-23T08:04:59.641Z,6.43
2023-02-23T08:07:26.836Z,7.60
2023-02-23T08:09:53.808Z,7.40
2023-02-23T08:12:20.751Z,10.65
2023-02-23T08:14:47.722Z,13.60
2023-02-23T08:17:14.730Z,7.75
2023-02-23T08:19:41.640Z,10.00
2023-02-23T08:22:10.110Z,7.13
2023-02-23T08:24:38.038Z,6.57
2023-02-23T08:27:05.227Z,10.43
2023-02-23T08:29:33.518Z,6.28
2023-02-23T08:32:05.063Z,13.90
2023-02-23T08:34:32.442Z,6.25
2023-02-23T08:37:00.227Z,3.80
2023-02-23T08:39:27.341Z,5.70
2023-02-23T08:41:55.650Z,6.85
2023-02-23T08:44:22.572Z,7.18
2023-02-23T08:46:49.540Z,10.35
2023-02-23T08:49:16.652Z,3.95
2023-02-23T08:51:43.544Z,7.00
2023-02-23T08:54:14.738Z,2.92
2023-02-23T08:56:42.541Z,5.88
2023-02-23T08:59:09.858Z,8.55
2023-02-23T09:01:37.316Z,6.25
2023-02-23T09:04:05.622Z,2.47
2023-02-23T09:06:35.304Z,7.45
2023-02-23T09:09:02.498Z,8.77
2023-02-23T09:11:29.546Z,5.72
2023-02-23T09:13:56.401Z,9.38
2023-02-23T09:16:23.288Z,7.97
2023-02-23T09:18:50.229Z,4.93
2023-02-23T09:21:22.302Z,5.45
2023-02-23T09:23:51.453Z,2.38
2023-02-23T09:26:19.695Z,2.17
2023-02-23T09:28:47.228Z,4.93
2023-02-23T09:31:18.401Z,8.07
2023-02-23T09:33:45.619Z,14.93
2023-02-23T09:36:17.655Z,4.70
2023-02-23T09:38:45.942Z,3.10
2023-02-23T09:41:31.295Z,5.88
2023-02-23T09:44:29.905Z,4.30
2023-02-23T09:47:15.033Z,3.63
2023-02-23T09:49:45.400Z,3.92
2023-02-23T09:52:23.712Z,8.80
2023-02-23T09:54:51.086Z,6.85
2023-02-23T09:57:33.704Z,6.82
2023-02-23T10:00:01.211Z,4.78
2023-02-23T10:02:39.837Z,8.63
2023-02-23T10:05:11.886Z,7.45
2023-02-23T10:07:38.799Z,11.48
2023-02-23T10:10:21.454Z,6.60
2023-02-23T10:13:22.312Z,4.93
2023-02-23T10:16:14.098Z,4.53
2023-02-23T10:18:52.012Z,3.50
2023-02-23T10:21:30.307Z,2.83
2023-02-23T10:24:17.969Z,5.72
2023-02-23T10:26:52.108Z,3.38
2023-02-23T10:29:32.700Z,7.57
2023-02-23T10:32:15.302Z,4.35
2023-02-23T10:34:45.072Z,9.10
2023-02-23T10:37:13.394Z,5.07
2023-02-23T10:39:42.328Z,3.20
2023-02-23T10:42:15.817Z,8.40
2023-02-23T10:44:44.968Z,6.32
2023-02-23T10:47:19.511Z,5.05
2023-02-23T10:49:47.979Z,6.03
2023-02-23T10:52:41.706Z,6.18
2023-02-23T10:55:26.341Z,11.60
2023-02-23T10:58:18.754Z,9.63
2023-02-23T11:00:53.528Z,6.22
2023-02-23T11:03:33.842Z,3.05
2023-02-23T11:06:00.893Z,4.75
2023-02-23T11:08:30.689Z,8.75
2023-02-23T11:11:15.923Z,7.03
2023-02-23T11:13:44.544Z,10.02
2023-02-23T11:16:30.440Z,8.43
2023-02-23T11:19:00.916Z,9.32
2023-02-23T11:21:35.143Z,10.15
2023-02-23T11:24:27.709Z,12.45
2023-02-23T11:27:00.478Z,9.00
2023-02-23T11:29:41.113Z,8.00
2023-02-23T11:32:13.721Z,3.95
2023-02-23T11:34:43.453Z,7.68
2023-02-23T11:37:14.584Z,6.20
2023-02-23T11:39:55.046Z,8.80
2023-02-23T11:42:25.506Z,7.95
2023-02-23T11:45:04.371Z,7.63
2023-02-23T11:47:35.136Z,6.13
2023-02-23T11:50:03.964Z,11.63
2023-02-23T11:52:31.486Z,8.52
2023-02-23T11:55:07.102Z,4.55
2023-02-23T11:57:36.079Z,11.63
2023-02-23T12:00:11.741Z,7.43
2023-02-23T12:02:55.826Z,7.63
2023-02-23T12:05:26.695Z,16.58
2023-02-23T12:08:20.065Z,10.20
2023-02-23T12:10:58.844Z,11.65
2023-02-23T12:13:28.161Z,11.80
2023-02-23T12:16:05.461Z,9.13
2023-02-23T12:18:56.067Z,5.13
2023-02-23T12:21:25.805Z,11.18
2023-02-23T12:24:19.412Z,5.70
2023-02-23T12:27:16.690Z,7.22
2023-02-23T12:30:09.404Z,15.48
2023-02-23T12:32:58.028Z,4.25
2023-02-23T12:35:46.918Z,12.43
2023-02-23T12:38:27.915Z,11.50
2023-02-23T12:41:11.320Z,11.43
2023-02-23T12:43:51.662Z,14.85
2023-02-23T12:46:30.545Z,9.20
2023-02-23T12:49:21.705Z,10.57
2023-02-23T12:51:58.349Z,6.63
2023-02-23T12:54:26.383Z,4.45
2023-02-23T12:57:14.591Z,4.50
2023-02-23T13:00:10.192Z,9.77
2023-02-23T13:03:18.483Z,15.43
2023-02-23T13:06:01.752Z,9.32
2023-02-23T13:09:00.567Z,5.53
2023-02-23T13:11:57.088Z,7.97
2023-02-23T13:15:07.562Z,9.77
2023-02-23T13:18:08.397Z,13.30
2023-02-23T13:20:50.731Z,5.45
2023-02-23T13:23:55.955Z,11.73
2023-02-23T13:26:45.444Z,5.75
2023-02-23T13:29:37.200Z,5.95
2023-02-23T13:32:06.565Z,18.02
2023-02-23T13:34:39.497Z,5.40
2023-02-23T13:37:08.500Z,5.15
2023-02-23T13:39:41.588Z,5.00
2023-02-23T13:42:20.176Z,4.32
2023-02-23T13:45:01.426Z,11.52
2023-02-23T13:47:38.853Z,4.60
2023-02-23T13:50:37.899Z,7.72
2023-02-23T13:53:07.777Z,9.15
2023-02-23T13:55:49.917Z,8.88
2023-02-23T13:58:30.365Z,12.13
2023-02-23T14:01:12.045Z,11.40
2023-02-23T14:03:52.362Z,5.70
2023-02-23T14:06:21.233Z,11.70
2023-02-23T14:08:54.926Z,13.98
2023-02-23T14:11:51.009Z,15.20
2023-02-23T14:14:33.288Z,10.30
2023-02-23T14:17:41.609Z,9.25
2023-02-23T14:20:24.382Z,9.65
2023-02-23T14:23:28.703Z,17.85
2023-02-23T14:26:12.797Z,11.57
2023-02-23T14:28:41.992Z,11.15
2023-02-23T14:31:16.015Z,14.50
2023-02-23T14:33:43.040Z,10.07
2023-02-23T14:36:22.322Z,9.13
2023-02-23T14:39:01.188Z,11.73
2023-02-23T14:41:34.198Z,14.43
2023-02-23T14:44:34.491Z,11.90
2023-02-23T14:47:09.258Z,20.42
2023-02-23T14:49:40.752Z,10.25
2023-02-23T14:52:21.424Z,14.60
2023-02-23T14:54:48.496Z,14.35
2023-02-23T14:57:24.935Z,12.32
2023-02-23T15:00:00.287Z,13.07
2023-02-23T15:04:55.548Z,30.58
2023-02-23T15:07:32.533Z,14.90
2023-02-23T15:10:01.430Z,6.53
2023-02-23T15:12:36.512Z,10.65
2023-02-23T15:15:14.043Z,10.73
2023-02-23T15:17:44.087Z,10.18
2023-02-23T15:20:18.941Z,9.45
2023-02-23T15:22:53.809Z,14.63
2023-02-23T15:25:24.243Z,6.60
2023-02-23T15:27:53.201Z,9.20
2023-02-23T15:30:32.565Z,14.80
2023-02-23T15:33:11.635Z,25.55
2023-02-23T15:36:07.239Z,8.18
2023-02-23T15:38:43.860Z,16.95
2023-02-23T15:41:33.165Z,18.30
2023-02-23T15:44:14.789Z,18.00
2023-02-23T15:46:44.054Z,10.20
2023-02-23T15:49:14.397Z,15.07
2023-02-23T15:51:49.069Z,13.93
2023-02-23T15:54:21.780Z,15.63
2023-02-23T15:56:50.725Z,9.10
2023-02-23T15:59:24.025Z,12.02
2023-02-23T16:01:57.293Z,12.88
2023-02-23T16:04:31.440Z,21.33
2023-02-23T16:07:28.086Z,24.00
2023-02-23T16:10:03.777Z,19.05
2023-02-23T16:12:35.174Z,12.25
2023-02-23T16:15:06.129Z,15.57
2023-02-23T16:17:44.849Z,14.35
2023-02-23T16:20:34.762Z,21.92
2023-02-23T16:23:03.129Z,11.35
2023-02-23T16:25:31.560Z,11.23
2023-02-23T16:28:21.676Z,4.93
2023-02-23T16:30:59.122Z,12.20
2023-02-23T16:33:42.150Z,19.35
2023-02-23T16:36:12.395Z,14.25
2023-02-23T16:38:48.947Z,10.07
2023-02-23T16:41:19.564Z,15.98
2023-02-23T16:43:49.129Z,10.35
2023-02-23T16:46:22.387Z,12.50
2023-02-23T16:48:49.624Z,14.73
2023-02-23T16:51:19.068Z,14.88
2023-02-23T16:53:46.242Z,21.98
2023-02-23T16:56:17.270Z,14.82
2023-02-23T16:58:47.406Z,13.55
2023-02-23T17:01:16.917Z,20.17
2023-02-23T17:03:52.776Z,13.15
2023-02-23T17:06:23.713Z,4.88
2023-02-23T17:08:58.049Z,17.05
2023-02-23T17:11:26.042Z,6.68
2023-02-23T17:13:53.051Z,11.13
2023-02-23T17:16:20.449Z,13.10
2023-02-23T17:18:47.659Z,14.45
2023-02-23T17:21:15.231Z,13.68
2023-02-23T17:23:48.306Z,9.98
2023-02-23T17:26:15.946Z,5.30
2023-02-23T17:28:43.026Z,13.40
2023-02-23T17:31:10.305Z,10.80
2023-02-23T17:33:37.810Z,16.27
2023-02-23T17:36:07.482Z,12.52
2023-02-23T17:38:34.888Z,11.13
2023-02-23T17:41:06.793Z,12.13
2023-02-23T17:43:34.993Z,16.17
2023-02-23T17:46:02.371Z,21.00
2023-02-23T17:48:30.531Z,17.15
2023-02-23T17:51:03.704Z,22.33
2023-02-23T17:53:31.718Z,4.93
2023-02-23T17:55:59.173Z,13.57
2023-02-23T17:58:26.487Z,15.35
2023-02-23T18:00:55.585Z,9.55
2023-02-23T18:03:23.338Z,20.38
2023-02-23T18:05:50.582Z,20.17
2023-02-23T18:08:20.192Z,8.27
2023-02-23T18:10:55.095Z,17.58
2023-02-23T18:13:23.385Z,8.82
2023-02-23T18:15:52.733Z,11.35
2023-02-23T18:18:20.807Z,9.05
2023-02-23T18:20:55.854Z,9.75
2023-02-23T18:23:24.203Z,20.92
2023-02-23T18:25:51.191Z,8.35
2023-02-23T18:28:18.651Z,11.80
2023-02-23T18:30:45.741Z,14.80
2023-02-23T18:33:13.517Z,14.57
2023-02-23T18:35:43.090Z,13.85
2023-02-23T18:38:12.175Z,13.93
2023-02-23T18:40:40.441Z,13.20
2023-02-23T18:43:08.342Z,12.88
2023-02-23T18:45:35.433Z,9.38
2023-02-23T18:48:02.704Z,22.20
2023-02-23T18:50:29.720Z,11.70
2023-02-23T18:52:58.287Z,15.50
2023-02-23T18:55:25.178Z,13.73
2023-02-23T18:57:52.918Z,17.02
2023-02-23T19:00:20.732Z,14.80
2023-02-23T19:02:48.344Z,14.00
2023-02-23T19:05:18.549Z,8.35
2023-02-23T19:07:47.182Z,12.60
2023-02-23T19:10:15.286Z,15.00
2023-02-23T19:12:42.652Z,9.93
2023-02-23T19:15:10.344Z,10.63
2023-02-23T19:17:37.326Z,12.25
2023-02-23T19:20:08.255Z,13.52
2023-02-23T19:22:35.341Z,11.75
2023-02-23T19:25:02.520Z,14.95
2023-02-23T19:27:29.448Z,18.70
2023-02-23T19:29:56.430Z,14.02
2023-02-23T19:32:23.423Z,21.88
2023-02-23T19:34:50.754Z,18.20
2023-02-23T19:37:17.722Z,7.82
2023-02-23T19:39:46.498Z,14.75
2023-02-23T19:42:18.342Z,23.10
2023-02-23T19:44:45.280Z,18.48
2023-02-23T19:47:12.208Z,9.73
2023-02-23T19:49:39.074Z,14.85
2023-02-23T19:52:06.030Z,18.08
2023-02-23T19:54:37.825Z,17.40
2023-02-23T19:57:04.879Z,18.67
2023-02-23T19:59:31.806Z,16.40
2023-02-23T20:01:58.767Z,13.90
2023-02-23T20:04:27.130Z,10.73
2023-02-23T20:06:54.082Z,12.57
2023-02-23T20:09:20.966Z,21.55
2023-02-23T20:11:48.442Z,13.30
2023-02-23T20:14:15.672Z,19.10
2023-02-23T20:16:42.652Z,14.60
2023-02-23T20:19:11.773Z,19.60
2023-02-23T20:21:39.818Z,16.92
2023-02-23T20:24:07.255Z,12.15
2023-02-23T20:26:37.302Z,10.60
2023-02-23T20:29:11.165Z,12.88
2023-02-23T20:31:41.734Z,20.55
2023-02-23T20:34:11.197Z,13.90
2023-02-23T20:36:38.996Z,15.00
2023-02-23T20:39:05.964Z,28.77
2023-02-23T20:41:33.039Z,17.50
2023-02-23T20:44:01.308Z,16.20
2023-02-23T20:46:30.612Z,18.42
2023-02-23T20:48:59.465Z,9.07
2023-02-23T20:51:27.804Z,16.38
2023-02-23T20:53:54.948Z,11.05
2023-02-23T20:56:22.232Z,13.77
2023-02-23T20:58:49.664Z,9.60
2023-02-23T21:01:22.743Z,16.50
2023-02-23T21:03:51.706Z,15.48
2023-02-23T21:06:20.215Z,16.25
2023-02-23T21:08:51.057Z,12.82
2023-02-23T21:11:20.231Z,10.68
2023-02-23T21:13:47.908Z,12.65
2023-02-23T21:16:17.208Z,12.68
2023-02-23T21:18:44.934Z,14.82
2023-02-23T21:21:15.499Z,17.58
2023-02-23T21:23:48.863Z,13.60
2023-02-23T21:26:16.241Z,15.98
2023-02-23T21:28:46.867Z,19.23
2023-02-23T21:31:14.591Z,15.25
2023-02-23T21:33:43.291Z,11.05
2023-02-23T21:36:11.362Z,12.45
2023-02-23T21:38:40.046Z,17.98
2023-02-23T21:41:08.291Z,16.02
2023-02-23T21:43:36.482Z,18.05
2023-02-23T21:46:08.680Z,21.20
2023-02-23T21:48:35.657Z,19.88
2023-02-23T21:51:09.343Z,17.65
2023-02-23T21:53:37.669Z,24.17
2023-02-23T21:56:11.861Z,17.80
2023-02-23T21:58:55.682Z,15.95
2023-02-23T22:01:24.820Z,12.73
2023-02-23T22:03:51.800Z,12.48
2023-02-23T22:06:21.334Z,16.10
2023-02-23T22:08:51.516Z,17.75
2023-02-23T22:11:21.265Z,15.88
2023-02-23T22:13:50.012Z,7.90
2023-02-23T22:16:19.324Z,20.15
2023-02-23T22:18:46.723Z,16.58
2023-02-23T22:21:14.258Z,12.82
2023-02-23T22:23:43.867Z,15.23
2023-02-23T22:26:10.982Z,15.43
2023-02-23T22:28:38.083Z,10.57
2023-02-23T22:31:11.215Z,12.27
2023-02-23T22:33:41.615Z,14.38
2023-02-23T22:36:13.388Z,17.83
2023-02-23T22:38:42.115Z,16.63
2023-02-23T22:41:10.365Z,8.20
2023-02-23T22:43:38.739Z,14.70
2023-02-23T22:46:08.217Z,10.27
2023-02-23T22:48:36.163Z,13.63
2023-02-23T22:51:03.327Z,19.45
2023-02-23T22:53:31.040Z,21.40
2023-02-23T22:55:57.969Z,15.60
2023-02-23T22:58:29.072Z,17.63
2023-02-23T23:01:23.145Z,10.27
2023-02-23T23:03:50.029Z,9.35
2023-02-23T23:06:23.191Z,15.68
2023-02-23T23:08:52.506Z,11.57
2023-02-23T23:11:26.058Z,14.77
2023-02-23T23:13:57.761Z,17.65
2023-02-23T23:16:32.215Z,19.08
2023-02-23T23:19:12.315Z,15.60
2023-02-23T23:21:41.587Z,12.05
2023-02-23T23:24:09.786Z,11.50
2023-02-23T23:26:39.844Z,12.60
2023-02-23T23:29:10.295Z,10.35
2023-02-23T23:31:39.125Z,6.88
2023-02-23T23:34:09.631Z,14.05
2023-02-23T23:36:53.359Z,13.57
2023-02-23T23:39:22.576Z,11.85
2023-02-23T23:41:50.441Z,14.52
2023-02-23T23:44:23.053Z,13.35
2023-02-23T23:46:51.026Z,9.50
2023-02-23T23:49:20.779Z,17.80
2023-02-23T23:51:52.785Z,6.28
2023-02-23T23:54:22.526Z,13.77
2023-02-23T23:56:51.040Z,6.88
2023-02-23T23:59:21.450Z,13.98
